sensor_id;sensor_type;location;lat;lon;timestamp;pressure;altitude;pressure_sealevel;temperature;humidity
11124;BME280;5616;42.692;23.312;2024-01-06T00:02:00;94980.25;;;7.79;89.65
11124;BME280;5616;42.692;23.312;2024-01-06T00:04:28;94969.81;;;7.81;89.00
11124;BME280;5616;42.692;23.312;2024-01-06T00:06:55;94971.88;;;7.85;88.37
11124;BME280;5616;42.692;23.312;2024-01-06T00:09:22;94950.59;;;7.69;88.92
11124;BME280;5616;42.692;23.312;2024-01-06T00:11:48;94947.47;;;7.81;88.08
11124;BME280;5616;42.692;23.312;2024-01-06T00:14:15;94954.75;;;7.70;88.93
11124;BME280;5616;42.692;23.312;2024-01-06T00:16:42;94970.34;;;7.68;89.49
11124;BME280;5616;42.692;23.312;2024-01-06T00:19:09;94974.50;;;7.69;89.57
11124;BME280;5616;42.692;23.312;2024-01-06T00:21:37;94982.88;;;7.71;89.86
11124;BME280;5616;42.692;23.312;2024-01-06T00:24:04;94988.16;;;7.62;89.29
11124;BME280;5616;42.692;23.312;2024-01-06T00:26:31;94991.56;;;7.46;90.58
11124;BME280;5616;42.692;23.312;2024-01-06T00:28:58;94986.28;;;7.56;90.47
11124;BME280;5616;42.692;23.312;2024-01-06T00:31:25;94969.56;;;7.60;90.36
11124;BME280;5616;42.692;23.312;2024-01-06T00:33:51;94988.34;;;7.60;89.90
11124;BME280;5616;42.692;23.312;2024-01-06T00:36:18;94997.34;;;7.56;89.72
11124;BME280;5616;42.692;23.312;2024-01-06T00:38:46;94988.38;;;7.52;90.18
11124;BME280;5616;42.692;23.312;2024-01-06T00:41:13;94978.09;;;7.44;90.08
11124;BME280;5616;42.692;23.312;2024-01-06T00:43:40;94978.63;;;7.31;90.25
11124;BME280;5616;42.692;23.312;2024-01-06T00:46:07;94991.13;;;7.34;90.96
11124;BME280;5616;42.692;23.312;2024-01-06T00:48:33;94974.28;;;7.40;89.66
11124;BME280;5616;42.692;23.312;2024-01-06T00:51:00;94959.34;;;7.35;89.76
11124;BME280;5616;42.692;23.312;2024-01-06T00:53:27;94963.66;;;7.35;90.58
11124;BME280;5616;42.692;23.312;2024-01-06T00:55:55;94973.19;;;7.18;90.30
11124;BME280;5616;42.692;23.312;2024-01-06T00:58:22;94968.69;;;7.20;91.04
11124;BME280;5616;42.692;23.312;2024-01-06T01:00:49;94969.28;;;7.30;91.12
11124;BME280;5616;42.692;23.312;2024-01-06T01:03:16;94979.44;;;7.24;91.34
11124;BME280;5616;42.692;23.312;2024-01-06T01:05:42;94970.28;;;7.21;90.74
11124;BME280;5616;42.692;23.312;2024-01-06T01:08:09;94963.69;;;7.27;90.16
11124;BME280;5616;42.692;23.312;2024-01-06T01:10:36;94971.06;;;7.22;91.04
11124;BME280;5616;42.692;23.312;2024-01-06T01:13:05;94959.34;;;7.27;91.26
11124;BME280;5616;42.692;23.312;2024-01-06T01:15:31;94961.44;;;7.32;90.35
11124;BME280;5616;42.692;23.312;2024-01-06T01:17:58;94960.63;;;7.31;91.31
11124;BME280;5616;42.692;23.312;2024-01-06T01:20:25;94965.28;;;7.36;91.14
11124;BME280;5616;42.692;23.312;2024-01-06T01:22:52;94967.34;;;7.32;90.34
11124;BME280;5616;42.692;23.312;2024-01-06T01:25:18;94960.78;;;7.38;90.53
11124;BME280;5616;42.692;23.312;2024-01-06T01:27:45;94962.22;;;7.40;90.61
11124;BME280;5616;42.692;23.312;2024-01-06T01:30:13;94950.16;;;7.41;90.09
11124;BME280;5616;42.692;23.312;2024-01-06T01:32:40;94955.50;;;7.31;90.91
11124;BME280;5616;42.692;23.312;2024-01-06T01:35:07;94934.97;;;7.31;90.74
11124;BME280;5616;42.692;23.312;2024-01-06T01:37:34;94944.91;;;7.34;90.92
11124;BME280;5616;42.692;23.312;2024-01-06T01:40:01;94947.28;;;7.36;90.37
11124;BME280;5616;42.692;23.312;2024-01-06T01:42:28;94937.84;;;7.36;90.38
11124;BME280;5616;42.692;23.312;2024-01-06T01:44:55;94933.66;;;7.35;90.87
11124;BME280;5616;42.692;23.312;2024-01-06T01:47:23;94934.34;;;7.21;91.32
11124;BME280;5616;42.692;23.312;2024-01-06T01:49:50;94924.38;;;7.26;91.68
11124;BME280;5616;42.692;23.312;2024-01-06T01:52:17;94922.13;;;7.31;91.61
11124;BME280;5616;42.692;23.312;2024-01-06T01:54:45;94925.16;;;7.27;91.96
11124;BME280;5616;42.692;23.312;2024-01-06T01:57:13;94928.91;;;7.16;92.21
11124;BME280;5616;42.692;23.312;2024-01-06T01:59:40;94925.66;;;7.22;92.41
11124;BME280;5616;42.692;23.312;2024-01-06T02:02:08;94934.78;;;7.25;92.76
11124;BME280;5616;42.692;23.312;2024-01-06T02:04:37;94921.94;;;7.33;92.29
11124;BME280;5616;42.692;23.312;2024-01-06T02:07:04;94923.69;;;7.32;91.75
11124;BME280;5616;42.692;23.312;2024-01-06T02:09:31;94921.13;;;7.40;91.79
11124;BME280;5616;42.692;23.312;2024-01-06T02:11:58;94915.16;;;7.48;91.80
11124;BME280;5616;42.692;23.312;2024-01-06T02:14:25;94910.66;;;7.50;92.04
11124;BME280;5616;42.692;23.312;2024-01-06T02:16:51;94896.84;;;7.51;91.89
11124;BME280;5616;42.692;23.312;2024-01-06T02:19:18;94895.91;;;7.44;91.28
11124;BME280;5616;42.692;23.312;2024-01-06T02:21:48;94896.03;;;7.51;92.07
11124;BME280;5616;42.692;23.312;2024-01-06T02:24:14;94902.47;;;7.47;92.09
11124;BME280;5616;42.692;23.312;2024-01-06T02:26:41;94894.94;;;7.45;92.12
11124;BME280;5616;42.692;23.312;2024-01-06T02:29:08;94885.75;;;7.51;91.00
11124;BME280;5616;42.692;23.312;2024-01-06T02:31:34;94875.53;;;7.43;91.34
11124;BME280;5616;42.692;23.312;2024-01-06T02:34:01;94877.94;;;7.44;90.89
11124;BME280;5616;42.692;23.312;2024-01-06T02:36:28;94878.41;;;7.48;90.37
11124;BME280;5616;42.692;23.312;2024-01-06T02:38:56;94871.16;;;7.51;90.51
11124;BME280;5616;42.692;23.312;2024-01-06T02:41:22;94871.00;;;7.53;90.14
11124;BME280;5616;42.692;23.312;2024-01-06T02:43:49;94866.00;;;7.51;90.40
11124;BME280;5616;42.692;23.312;2024-01-06T02:46:16;94861.53;;;7.53;90.78
11124;BME280;5616;42.692;23.312;2024-01-06T02:48:43;94871.31;;;7.50;90.60
11124;BME280;5616;42.692;23.312;2024-01-06T02:51:11;94866.81;;;7.52;89.95
11124;BME280;5616;42.692;23.312;2024-01-06T02:53:38;94871.16;;;7.51;89.78
11124;BME280;5616;42.692;23.312;2024-01-06T02:56:10;94850.44;;;7.53;89.94
11124;BME280;5616;42.692;23.312;2024-01-06T02:58:37;94849.50;;;7.46;90.85
11124;BME280;5616;42.692;23.312;2024-01-06T03:01:04;94848.56;;;7.38;90.65
11124;BME280;5616;42.692;23.312;2024-01-06T03:03:30;94846.16;;;7.45;90.73
11124;BME280;5616;42.692;23.312;2024-01-06T03:05:57;94847.91;;;7.45;91.43
11124;BME280;5616;42.692;23.312;2024-01-06T03:08:24;94844.84;;;7.49;91.55
11124;BME280;5616;42.692;23.312;2024-01-06T03:10:50;94842.41;;;7.56;90.31
11124;BME280;5616;42.692;23.312;2024-01-06T03:13:19;94849.59;;;7.60;89.87
11124;BME280;5616;42.692;23.312;2024-01-06T03:15:45;94848.50;;;7.55;89.57
11124;BME280;5616;42.692;23.312;2024-01-06T03:18:12;94844.78;;;7.57;88.10
11124;BME280;5616;42.692;23.312;2024-01-06T03:20:39;94837.44;;;7.46;88.58
11124;BME280;5616;42.692;23.312;2024-01-06T03:23:05;94834.44;;;7.43;88.76
11124;BME280;5616;42.692;23.312;2024-01-06T03:25:32;94830.72;;;7.45;87.55
11124;BME280;5616;42.692;23.312;2024-01-06T03:27:59;94833.13;;;7.47;88.26
11124;BME280;5616;42.692;23.312;2024-01-06T03:30:27;94835.38;;;7.50;87.63
11124;BME280;5616;42.692;23.312;2024-01-06T03:32:54;94838.25;;;7.47;87.46
11124;BME280;5616;42.692;23.312;2024-01-06T03:35:20;94831.50;;;7.46;87.36
11124;BME280;5616;42.692;23.312;2024-01-06T03:37:47;94830.72;;;7.45;86.48
11124;BME280;5616;42.692;23.312;2024-01-06T03:40:14;94829.25;;;7.51;86.78
11124;BME280;5616;42.692;23.312;2024-01-06T03:42:41;94831.81;;;7.51;86.18
11124;BME280;5616;42.692;23.312;2024-01-06T03:45:08;94835.84;;;7.53;86.37
11124;BME280;5616;42.692;23.312;2024-01-06T03:47:36;94829.88;;;7.53;84.86
11124;BME280;5616;42.692;23.312;2024-01-06T03:50:03;94836.94;;;7.51;85.29
11124;BME280;5616;42.692;23.312;2024-01-06T03:52:30;94833.97;;;7.39;84.63
11124;BME280;5616;42.692;23.312;2024-01-06T03:54:57;94835.72;;;7.38;84.91
11124;BME280;5616;42.692;23.312;2024-01-06T03:57:22;94832.81;;;7.42;84.56
11124;BME280;5616;42.692;23.312;2024-01-06T03:59:49;94823.81;;;7.46;86.14
11124;BME280;5616;42.692;23.312;2024-01-06T04:02:16;94827.69;;;7.42;85.12
11124;BME280;5616;42.692;23.312;2024-01-06T04:04:44;94828.22;;;7.29;86.22
11124;BME280;5616;42.692;23.312;2024-01-06T04:07:11;94826.75;;;7.34;85.60
11124;BME280;5616;42.692;23.312;2024-01-06T04:09:37;94830.88;;;7.44;86.32
11124;BME280;5616;42.692;23.312;2024-01-06T04:12:05;94822.84;;;7.47;86.06
11124;BME280;5616;42.692;23.312;2024-01-06T04:14:32;94825.88;;;7.50;85.72
11124;BME280;5616;42.692;23.312;2024-01-06T04:16:59;94829.41;;;7.49;84.51
11124;BME280;5616;42.692;23.312;2024-01-06T04:19:25;94826.41;;;7.37;85.29
11124;BME280;5616;42.692;23.312;2024-01-06T04:21:54;94820.28;;;7.47;85.95
11124;BME280;5616;42.692;23.312;2024-01-06T04:24:20;94829.41;;;7.49;85.34
11124;BME280;5616;42.692;23.312;2024-01-06T04:26:47;94816.38;;;7.51;84.69
11124;BME280;5616;42.692;23.312;2024-01-06T04:29:14;94826.56;;;7.44;85.59
11124;BME280;5616;42.692;23.312;2024-01-06T04:31:41;94841.66;;;7.39;85.42
11124;BME280;5616;42.692;23.312;2024-01-06T04:34:08;94843.28;;;7.40;86.67
11124;BME280;5616;42.692;23.312;2024-01-06T04:36:34;94855.94;;;7.42;86.24
11124;BME280;5616;42.692;23.312;2024-01-06T04:39:02;94848.91;;;7.35;85.61
11124;BME280;5616;42.692;23.312;2024-01-06T04:41:29;94852.78;;;7.31;86.96
11124;BME280;5616;42.692;23.312;2024-01-06T04:43:56;94842.19;;;7.34;86.58
11124;BME280;5616;42.692;23.312;2024-01-06T04:46:23;94849.19;;;7.40;85.81
11124;BME280;5616;42.692;23.312;2024-01-06T04:48:50;94851.94;;;7.39;86.63
11124;BME280;5616;42.692;23.312;2024-01-06T04:51:17;94849.66;;;7.44;86.32
11124;BME280;5616;42.692;23.312;2024-01-06T04:53:43;94852.91;;;7.38;85.48
11124;BME280;5616;42.692;23.312;2024-01-06T04:56:12;94858.25;;;7.28;86.56
11124;BME280;5616;42.692;23.312;2024-01-06T04:58:38;94850.88;;;7.25;86.53
11124;BME280;5616;42.692;23.312;2024-01-06T05:01:06;94852.19;;;7.21;86.75
11124;BME280;5616;42.692;23.312;2024-01-06T05:03:33;94857.31;;;7.21;87.28
11124;BME280;5616;42.692;23.312;2024-01-06T05:06:00;94855.06;;;7.18;87.17
11124;BME280;5616;42.692;23.312;2024-01-06T05:08:27;94825.72;;;7.13;87.93
11124;BME280;5616;42.692;23.312;2024-01-06T05:10:56;94828.63;;;7.10;87.87
11124;BME280;5616;42.692;23.312;2024-01-06T05:13:24;94828.50;;;6.95;88.19
11124;BME280;5616;42.692;23.312;2024-01-06T05:15:51;94827.88;;;6.85;88.58
11124;BME280;5616;42.692;23.312;2024-01-06T05:18:17;94834.59;;;6.94;88.93
11124;BME280;5616;42.692;23.312;2024-01-06T05:20:44;94830.41;;;6.93;88.19
11124;BME280;5616;42.692;23.312;2024-01-06T05:23:11;94831.69;;;7.05;85.72
11124;BME280;5616;42.692;23.312;2024-01-06T05:25:38;94830.69;;;7.14;83.72
11124;BME280;5616;42.692;23.312;2024-01-06T05:28:05;94810.34;;;7.05;81.74
11124;BME280;5616;42.692;23.312;2024-01-06T05:30:33;94812.59;;;7.00;83.41
11124;BME280;5616;42.692;23.312;2024-01-06T05:33:00;94806.38;;;6.86;83.91
11124;BME280;5616;42.692;23.312;2024-01-06T05:35:27;94796.13;;;6.86;83.35
11124;BME280;5616;42.692;23.312;2024-01-06T05:37:53;94813.59;;;6.91;84.42
11124;BME280;5616;42.692;23.312;2024-01-06T05:40:20;94806.19;;;6.96;84.35
11124;BME280;5616;42.692;23.312;2024-01-06T05:42:47;94800.94;;;6.81;82.46
11124;BME280;5616;42.692;23.312;2024-01-06T05:45:14;94818.28;;;6.79;83.67
11124;BME280;5616;42.692;23.312;2024-01-06T05:47:42;94805.13;;;6.82;84.13
11124;BME280;5616;42.692;23.312;2024-01-06T05:50:09;94804.00;;;6.85;82.92
11124;BME280;5616;42.692;23.312;2024-01-06T05:52:36;94810.91;;;6.76;84.13
11124;BME280;5616;42.692;23.312;2024-01-06T05:55:04;94802.38;;;6.84;81.92
11124;BME280;5616;42.692;23.312;2024-01-06T05:57:31;94808.78;;;6.88;82.53
11124;BME280;5616;42.692;23.312;2024-01-06T05:59:58;94811.53;;;6.86;83.18
11124;BME280;5616;42.692;23.312;2024-01-06T06:02:25;94807.34;;;6.85;82.19
11124;BME280;5616;42.692;23.312;2024-01-06T06:04:53;94805.25;;;6.89;81.75
11124;BME280;5616;42.692;23.312;2024-01-06T06:07:20;94805.06;;;6.90;82.22
11124;BME280;5616;42.692;23.312;2024-01-06T06:09:47;94809.75;;;6.87;82.94
11124;BME280;5616;42.692;23.312;2024-01-06T06:12:13;94791.91;;;6.93;82.52
11124;BME280;5616;42.692;23.312;2024-01-06T06:14:40;94806.19;;;6.96;81.20
11124;BME280;5616;42.692;23.312;2024-01-06T06:17:07;94777.03;;;6.89;81.92
11124;BME280;5616;42.692;23.312;2024-01-06T06:19:34;94812.31;;;6.87;81.91
11124;BME280;5616;42.692;23.312;2024-01-06T06:22:02;94811.84;;;6.83;82.41
11124;BME280;5616;42.692;23.312;2024-01-06T06:24:28;94802.38;;;6.92;81.49
11124;BME280;5616;42.692;23.312;2024-01-06T06:26:55;94804.94;;;6.92;82.10
11124;BME280;5616;42.692;23.312;2024-01-06T06:29:22;94805.25;;;6.89;81.35
11124;BME280;5616;42.692;23.312;2024-01-06T06:31:49;94817.16;;;6.82;81.07
11124;BME280;5616;42.692;23.312;2024-01-06T06:34:16;94813.44;;;6.92;81.33
11124;BME280;5616;42.692;23.312;2024-01-06T06:36:42;94822.41;;;6.96;81.09
11124;BME280;5616;42.692;23.312;2024-01-06T06:39:11;94823.03;;;6.98;81.64
11124;BME280;5616;42.692;23.312;2024-01-06T06:41:37;94806.00;;;7.05;80.71
11124;BME280;5616;42.692;23.312;2024-01-06T06:44:04;94817.25;;;7.04;81.53
11124;BME280;5616;42.692;23.312;2024-01-06T06:46:31;94819.50;;;6.99;81.20
11124;BME280;5616;42.692;23.312;2024-01-06T06:48:57;94804.69;;;7.17;80.48
11124;BME280;5616;42.692;23.312;2024-01-06T06:51:24;94822.63;;;7.25;80.94
11124;BME280;5616;42.692;23.312;2024-01-06T06:53:52;94823.91;;;7.29;80.38
11124;BME280;5616;42.692;23.312;2024-01-06T06:56:20;94806.22;;;7.34;80.53
11124;BME280;5616;42.692;23.312;2024-01-06T06:58:47;94809.22;;;7.38;79.70
11124;BME280;5616;42.692;23.312;2024-01-06T07:01:14;94820.03;;;7.33;80.49
11124;BME280;5616;42.692;23.312;2024-01-06T07:03:41;94789.78;;;7.44;79.14
11124;BME280;5616;42.692;23.312;2024-01-06T07:06:08;94794.47;;;7.40;78.84
11124;BME280;5616;42.692;23.312;2024-01-06T07:08:37;94817.72;;;7.47;80.14
11124;BME280;5616;42.692;23.312;2024-01-06T07:11:04;94798.25;;;7.52;80.27
11124;BME280;5616;42.692;23.312;2024-01-06T07:13:33;94796.94;;;7.56;78.96
11124;BME280;5616;42.692;23.312;2024-01-06T07:15:59;94815.28;;;7.53;79.72
11124;BME280;5616;42.692;23.312;2024-01-06T07:18:26;94796.31;;;7.54;77.88
11124;BME280;5616;42.692;23.312;2024-01-06T07:20:53;94827.94;;;7.55;77.97
11124;BME280;5616;42.692;23.312;2024-01-06T07:23:20;94795.47;;;7.62;78.48
11124;BME280;5616;42.692;23.312;2024-01-06T07:25:46;94803.66;;;7.65;77.85
11124;BME280;5616;42.692;23.312;2024-01-06T07:28:14;94803.72;;;7.49;80.09
11124;BME280;5616;42.692;23.312;2024-01-06T07:30:42;94797.75;;;7.57;79.32
11124;BME280;5616;42.692;23.312;2024-01-06T07:33:09;94816.03;;;7.62;78.85
11124;BME280;5616;42.692;23.312;2024-01-06T07:35:36;94793.03;;;7.68;79.44
11124;BME280;5616;42.692;23.312;2024-01-06T07:38:08;94785.66;;;7.65;79.82
11124;BME280;5616;42.692;23.312;2024-01-06T07:40:35;94802.97;;;7.71;79.75
11124;BME280;5616;42.692;23.312;2024-01-06T07:43:02;94793.78;;;7.77;79.05
11124;BME280;5616;42.692;23.312;2024-01-06T07:45:29;94790.56;;;7.75;78.42
11124;BME280;5616;42.692;23.312;2024-01-06T07:47:58;94798.22;;;7.83;79.38
11124;BME280;5616;42.692;23.312;2024-01-06T07:50:25;94786.31;;;7.90;79.61
11124;BME280;5616;42.692;23.312;2024-01-06T07:52:52;94802.06;;;7.87;78.59
11124;BME280;5616;42.692;23.312;2024-01-06T07:55:18;94798.13;;;7.99;79.23
11124;BME280;5616;42.692;23.312;2024-01-06T07:57:46;94808.00;;;8.10;78.10
11124;BME280;5616;42.692;23.312;2024-01-06T08:00:13;94799.09;;;7.98;79.55
11124;BME280;5616;42.692;23.312;2024-01-06T08:02:40;94787.09;;;8.13;77.96
11124;BME280;5616;42.692;23.312;2024-01-06T08:05:08;94802.91;;;8.25;77.95
11124;BME280;5616;42.692;23.312;2024-01-06T08:07:36;94804.34;;;8.27;78.98
11124;BME280;5616;42.692;23.312;2024-01-06T08:10:04;94789.84;;;8.34;78.17
11124;BME280;5616;42.692;23.312;2024-01-06T08:12:31;94811.41;;;8.25;78.88
11124;BME280;5616;42.692;23.312;2024-01-06T08:14:58;94792.53;;;8.18;78.62
11124;BME280;5616;42.692;23.312;2024-01-06T08:17:24;94784.41;;;8.07;78.79
11124;BME280;5616;42.692;23.312;2024-01-06T08:19:51;94801.59;;;8.06;80.25
11124;BME280;5616;42.692;23.312;2024-01-06T08:22:19;94778.03;;;8.02;79.59
11124;BME280;5616;42.692;23.312;2024-01-06T08:24:46;94799.25;;;7.96;79.44
11124;BME280;5616;42.692;23.312;2024-01-06T08:27:12;94781.94;;;7.90;80.46
11124;BME280;5616;42.692;23.312;2024-01-06T08:29:41;94806.75;;;7.83;79.92
11124;BME280;5616;42.692;23.312;2024-01-06T08:32:08;94792.28;;;7.82;80.34
11124;BME280;5616;42.692;23.312;2024-01-06T08:34:35;94805.06;;;7.90;80.49
11124;BME280;5616;42.692;23.312;2024-01-06T08:37:02;94782.69;;;7.99;82.90
11124;BME280;5616;42.692;23.312;2024-01-06T08:39:49;94796.56;;;8.13;81.71
11124;BME280;5616;42.692;23.312;2024-01-06T08:42:15;94799.63;;;8.16;79.21
11124;BME280;5616;42.692;23.312;2024-01-06T08:44:42;94805.38;;;8.18;78.60
11124;BME280;5616;42.692;23.312;2024-01-06T08:47:10;94792.84;;;8.15;79.58
11124;BME280;5616;42.692;23.312;2024-01-06T08:49:37;94811.66;;;8.16;79.29
11124;BME280;5616;42.692;23.312;2024-01-06T08:52:04;94787.19;;;8.20;77.88
11124;BME280;5616;42.692;23.312;2024-01-06T08:54:31;94800.81;;;8.06;78.75
11124;BME280;5616;42.692;23.312;2024-01-06T08:56:59;94791.63;;;8.11;77.37
11124;BME280;5616;42.692;23.312;2024-01-06T08:59:26;94781.94;;;8.13;77.26
11124;BME280;5616;42.692;23.312;2024-01-06T09:01:53;94783.53;;;8.14;78.41
11124;BME280;5616;42.692;23.312;2024-01-06T09:04:19;94772.28;;;8.15;77.63
11124;BME280;5616;42.692;23.312;2024-01-06T09:06:46;94766.63;;;8.20;77.38
11124;BME280;5616;42.692;23.312;2024-01-06T09:09:13;94789.19;;;8.10;77.87
11124;BME280;5616;42.692;23.312;2024-01-06T09:11:40;94757.75;;;8.22;78.18
11124;BME280;5616;42.692;23.312;2024-01-06T09:14:08;94766.13;;;8.24;76.85
11124;BME280;5616;42.692;23.312;2024-01-06T09:16:36;94759.97;;;8.25;76.22
11124;BME280;5616;42.692;23.312;2024-01-06T09:19:03;94747.00;;;8.27;77.10
11124;BME280;5616;42.692;23.312;2024-01-06T09:21:29;94744.03;;;8.30;78.29
11124;BME280;5616;42.692;23.312;2024-01-06T09:23:56;94755.13;;;8.30;77.79
11124;BME280;5616;42.692;23.312;2024-01-06T09:26:23;94755.47;;;8.27;77.10
11124;BME280;5616;42.692;23.312;2024-01-06T09:28:50;94734.50;;;8.38;77.06
11124;BME280;5616;42.692;23.312;2024-01-06T09:31:18;94724.66;;;8.19;77.09
11124;BME280;5616;42.692;23.312;2024-01-06T09:33:45;94745.19;;;8.27;77.92
11124;BME280;5616;42.692;23.312;2024-01-06T09:36:11;94730.75;;;8.41;78.22
11124;BME280;5616;42.692;23.312;2024-01-06T09:38:39;94720.84;;;8.52;76.98
11124;BME280;5616;42.692;23.312;2024-01-06T09:41:06;94708.78;;;8.68;75.89
11124;BME280;5616;42.692;23.312;2024-01-06T09:43:32;94718.63;;;8.79;75.88
11124;BME280;5616;42.692;23.312;2024-01-06T09:46:05;94719.75;;;8.91;75.42
11124;BME280;5616;42.692;23.312;2024-01-06T09:48:35;94716.94;;;8.86;75.51
11124;BME280;5616;42.692;23.312;2024-01-06T09:51:09;94697.09;;;9.01;74.62
11124;BME280;5616;42.692;23.312;2024-01-06T09:53:43;94718.97;;;8.90;74.79
11124;BME280;5616;42.692;23.312;2024-01-06T09:56:10;94686.50;;;8.89;73.68
11124;BME280;5616;42.692;23.312;2024-01-06T09:58:38;94699.53;;;9.02;73.94
11124;BME280;5616;42.692;23.312;2024-01-06T10:01:06;94682.84;;;9.19;73.48
